createdAt,value
2019-04-23T00:00:15.834Z,12.54
2019-04-23T00:01:23.850Z,12.48
2019-04-23T00:02:13.451Z,12.37
2019-04-23T00:03:14.035Z,12.30
2019-04-23T00:04:10.113Z,12.31
2019-04-23T00:05:11.323Z,12.42
2019-04-23T00:06:18.987Z,12.38
2019-04-23T00:07:32.170Z,12.33
2019-04-23T00:08:17.510Z,12.34
2019-04-23T00:09:26.264Z,12.34
2019-04-23T00:10:28.649Z,12.33
2019-04-23T00:11:15.652Z,12.29
2019-04-23T00:12:21.407Z,12.39
2019-04-23T00:13:13.039Z,12.30
2019-04-23T00:14:21.083Z,12.26
2019-04-23T00:15:13.490Z,12.29
2019-04-23T00:16:12.906Z,12.20
2019-04-23T00:17:19.301Z,12.27
2019-04-23T00:18:14.755Z,12.26
2019-04-23T00:19:11.647Z,12.21
2019-04-23T00:21:16.668Z,12.21
2019-04-23T00:22:13.335Z,12.09
2019-04-23T00:23:11.411Z,12.09
2019-04-23T00:24:17.563Z,12.04
2019-04-23T00:26:16.256Z,12.04
2019-04-23T00:27:22.599Z,12.01
2019-04-23T00:28:21.216Z,11.96
2019-04-23T00:29:18.951Z,11.86
2019-04-23T00:30:12.998Z,11.97
2019-04-23T00:31:20.853Z,11.83
2019-04-23T00:32:15.178Z,11.89
2019-04-23T00:33:23.914Z,11.77
2019-04-23T00:34:11.018Z,11.82
2019-04-23T00:35:12.683Z,11.85
2019-04-23T00:36:10.286Z,11.82
2019-04-23T00:37:18.741Z,11.77
2019-04-23T00:38:21.000Z,11.74
2019-04-23T00:39:11.731Z,11.72
2019-04-23T00:40:13.875Z,11.67
2019-04-23T00:41:10.923Z,11.74
2019-04-23T00:42:17.687Z,11.62
2019-04-23T00:43:17.383Z,11.72
2019-04-23T00:44:21.262Z,11.61
2019-04-23T00:45:08.293Z,11.64
2019-04-23T00:46:34.087Z,11.59
2019-04-23T00:47:13.827Z,11.62
2019-04-23T00:48:14.930Z,11.57
2019-04-23T00:49:13.656Z,11.61
2019-04-23T00:50:32.559Z,11.53
2019-04-23T00:51:11.917Z,11.53
2019-04-23T00:53:12.694Z,11.50
2019-04-23T00:54:13.921Z,11.44
2019-04-23T00:56:29.567Z,11.36
2019-04-23T00:57:23.071Z,11.46
2019-04-23T00:58:22.117Z,11.41
2019-04-23T00:59:12.448Z,11.31
2019-04-23T01:00:20.663Z,11.36
2019-04-23T01:01:14.881Z,11.32
2019-04-23T01:02:10.830Z,11.32
2019-04-23T01:03:12.147Z,11.34
2019-04-23T01:04:12.034Z,11.21
2019-04-23T01:06:18.211Z,11.14
2019-04-23T01:07:16.369Z,11.19
2019-04-23T01:08:15.116Z,11.10
2019-04-23T01:09:11.749Z,11.13
2019-04-23T01:10:15.131Z,11.20
2019-04-23T01:11:34.173Z,11.09
2019-04-23T01:12:19.107Z,11.06
2019-04-23T01:13:14.985Z,11.02
2019-04-23T01:14:08.312Z,11.06
2019-04-23T01:15:11.961Z,11.11
2019-04-23T01:16:11.539Z,11.10
2019-04-23T01:17:17.328Z,11.03
2019-04-23T01:18:18.651Z,11.01
2019-04-23T01:19:13.624Z,11.06
2019-04-23T01:20:08.176Z,10.99
2019-04-23T01:20:54.240Z,10.95
2019-04-23T01:21:49.482Z,10.89
2019-04-23T01:22:50.755Z,10.84
2019-04-23T01:23:54.794Z,10.76
2019-04-23T01:24:50.803Z,10.80
2019-04-23T01:26:00.418Z,10.71
2019-04-23T01:27:30.421Z,10.73
2019-04-23T01:28:20.025Z,10.68
2019-04-23T01:29:12.900Z,10.66
2019-04-23T01:30:13.873Z,10.65
2019-04-23T01:31:18.148Z,10.76
2019-04-23T01:32:17.631Z,10.70
2019-04-23T01:33:18.414Z,10.59
2019-04-23T01:34:20.048Z,10.55
2019-04-23T01:35:17.634Z,10.60
2019-04-23T01:36:22.920Z,10.58
2019-04-23T01:37:19.228Z,10.46
2019-04-23T01:38:21.808Z,10.55
2019-04-23T01:40:23.994Z,10.46
2019-04-23T01:41:28.388Z,10.56
2019-04-23T01:42:22.222Z,10.55
2019-04-23T01:43:16.274Z,10.68
2019-04-23T01:44:15.679Z,10.55
2019-04-23T01:45:21.794Z,10.52
2019-04-23T01:46:14.012Z,10.60
2019-04-23T01:47:19.934Z,10.52
2019-04-23T01:48:13.179Z,10.55
2019-04-23T01:49:14.013Z,10.51
2019-04-23T01:51:07.857Z,10.47
2019-04-23T01:52:16.643Z,10.42
2019-04-23T01:53:18.433Z,10.46
2019-04-23T01:54:17.750Z,10.44
2019-04-23T01:55:08.352Z,10.43
2019-04-23T01:56:20.351Z,10.42
2019-04-23T01:58:33.545Z,10.42
2019-04-23T01:59:20.087Z,10.44
2019-04-23T02:02:19.450Z,10.42
2019-04-23T02:03:15.447Z,10.44
2019-04-23T02:04:22.896Z,10.36
2019-04-23T02:05:22.981Z,10.33
2019-04-23T02:06:13.607Z,10.32
2019-04-23T02:07:27.646Z,10.33
2019-04-23T02:08:17.459Z,10.33
2019-04-23T02:09:16.719Z,10.26
2019-04-23T02:10:24.927Z,10.25
2019-04-23T02:11:13.354Z,10.25
2019-04-23T02:12:18.153Z,10.14
2019-04-23T02:13:16.382Z,10.14
2019-04-23T02:14:14.939Z,10.17
2019-04-23T02:15:17.007Z,10.14
2019-04-23T02:16:21.940Z,10.19
2019-04-23T02:17:17.051Z,10.26
2019-04-23T02:18:16.317Z,10.21
2019-04-23T02:19:19.625Z,10.14
2019-04-23T02:20:25.900Z,10.10
2019-04-23T02:21:10.321Z,10.07
2019-04-23T02:22:21.919Z,10.10
2019-04-23T02:23:18.326Z,9.96
2019-04-23T02:24:14.501Z,9.96
2019-04-23T02:25:25.082Z,10.03
2019-04-23T02:26:15.187Z,9.96
2019-04-23T02:27:22.877Z,10.01
2019-04-23T02:28:19.876Z,10.03
2019-04-23T02:29:28.695Z,10.01
2019-04-23T02:30:40.957Z,10.00
2019-04-23T02:32:19.048Z,9.91
2019-04-23T02:34:35.260Z,9.83
2019-04-23T02:35:32.601Z,9.81
2019-04-23T02:36:20.803Z,9.78
2019-04-23T02:37:40.863Z,9.81
2019-04-23T02:39:22.054Z,9.82
2019-04-23T02:40:30.377Z,9.81
2019-04-23T02:41:41.559Z,9.67
2019-04-23T02:43:16.236Z,9.71
2019-04-23T02:44:36.629Z,9.70
2019-04-23T02:45:36.566Z,9.70
2019-04-23T02:47:23.441Z,9.67
2019-04-23T02:48:36.216Z,9.58
2019-04-23T02:51:39.639Z,9.56
2019-04-23T02:52:21.238Z,9.60
2019-04-23T02:54:46.650Z,9.63
2019-04-23T02:55:31.107Z,9.45
2019-04-23T02:57:18.730Z,9.50
2019-04-23T02:58:35.155Z,9.50
2019-04-23T02:59:51.342Z,9.50
2019-04-23T03:01:25.489Z,9.48
2019-04-23T03:03:25.826Z,9.32
2019-04-23T03:04:28.772Z,9.28
2019-04-23T03:05:24.914Z,9.30
2019-04-23T03:06:20.819Z,9.28
2019-04-23T03:07:35.920Z,9.28
2019-04-23T03:09:29.842Z,9.31
2019-04-23T03:10:20.804Z,9.31
2019-04-23T03:11:25.011Z,9.24
2019-04-23T03:12:27.059Z,9.24
2019-04-23T03:15:28.394Z,9.15
2019-04-23T03:17:37.146Z,9.13
2019-04-23T03:19:19.162Z,9.13
2019-04-23T03:21:25.479Z,9.04
2019-04-23T03:23:44.878Z,9.01
2019-04-23T03:25:25.253Z,9.01
2019-04-23T03:27:31.501Z,9.06
2019-04-23T03:28:26.981Z,8.93
2019-04-23T03:29:38.216Z,8.94
2019-04-23T03:30:26.577Z,8.84
2019-04-23T03:35:09.021Z,8.84
2019-04-23T03:35:16.338Z,8.68
2019-04-23T03:39:17.762Z,8.63
2019-04-23T03:40:39.154Z,8.62
2019-04-23T03:42:17.831Z,8.62
2019-04-23T03:43:26.046Z,8.63
2019-04-23T03:44:20.686Z,8.76
2019-04-23T03:45:30.263Z,8.63
2019-04-23T03:47:26.793Z,8.78
2019-04-23T03:48:28.591Z,8.66
2019-04-23T03:49:13.923Z,8.69
2019-04-23T03:50:32.559Z,8.51
2019-04-23T03:53:38.680Z,8.37
2019-04-23T03:54:37.977Z,8.47
2019-04-23T03:55:28.298Z,8.42
2019-04-23T03:56:38.344Z,8.48
2019-04-23T03:57:30.690Z,8.39
2019-04-23T03:58:42.378Z,8.45
2019-04-23T03:59:26.744Z,8.33
2019-04-23T04:00:35.223Z,8.45
2019-04-23T04:03:42.526Z,8.39
2019-04-23T04:04:24.740Z,8.48
2019-04-23T04:05:33.688Z,8.45
2019-04-23T04:07:29.341Z,8.57
2019-04-23T04:08:36.936Z,8.55
2019-04-23T04:09:34.711Z,8.58
2019-04-23T04:10:16.040Z,8.55
2019-04-23T04:11:25.490Z,8.60
2019-04-23T04:12:29.406Z,8.65
2019-04-23T04:14:33.871Z,8.68
2019-04-23T04:15:43.684Z,8.68
2019-04-23T04:16:17.926Z,8.58
2019-04-23T04:17:19.627Z,8.54
2019-04-23T04:18:33.161Z,8.55
2019-04-23T04:19:31.655Z,8.60
2019-04-23T04:20:25.935Z,8.76
2019-04-23T04:25:30.696Z,8.71
2019-04-23T04:26:22.785Z,8.72
2019-04-23T04:28:35.476Z,8.72
2019-04-23T04:30:22.305Z,8.63
2019-04-23T04:31:21.228Z,8.78
2019-04-23T04:39:27.550Z,8.78
2019-04-23T04:41:26.056Z,8.79
2019-04-23T04:43:31.759Z,8.83
2019-04-23T04:45:30.437Z,8.88
2019-04-23T04:46:30.527Z,8.93
2019-04-23T04:47:28.406Z,9.09
2019-04-23T04:48:19.808Z,8.94
2019-04-23T04:49:43.580Z,8.99
2019-04-23T04:51:27.118Z,9.13
2019-04-23T04:53:40.623Z,9.16
2019-04-23T04:54:21.610Z,9.15
2019-04-23T04:55:23.430Z,9.15
2019-04-23T04:57:29.734Z,9.24
2019-04-23T04:59:13.314Z,9.50
2019-04-23T05:00:34.953Z,9.39
2019-04-23T05:01:25.376Z,9.52
2019-04-23T05:02:35.468Z,9.43
2019-04-23T05:08:20.001Z,10.46
2019-04-23T05:09:24.998Z,10.52
2019-04-23T05:10:29.219Z,10.30
2019-04-23T05:14:25.197Z,10.65
2019-04-23T05:15:27.930Z,10.70
2019-04-23T05:16:19.641Z,10.76
2019-04-23T05:17:36.041Z,11.10
2019-04-23T05:19:37.189Z,11.17
2019-04-23T05:22:16.606Z,11.06
2019-04-23T05:23:25.437Z,11.09
2019-04-23T05:24:14.900Z,10.98
2019-04-23T05:25:12.586Z,10.76
2019-04-23T05:26:17.532Z,10.71
2019-04-23T05:27:15.744Z,10.66
2019-04-23T05:28:12.638Z,10.51
2019-04-23T05:30:15.129Z,10.36
2019-04-23T05:31:23.184Z,10.47
2019-04-23T05:32:14.972Z,10.44
2019-04-23T05:33:18.378Z,10.46
2019-04-23T05:34:08.002Z,10.43
2019-04-23T05:35:20.709Z,10.43
2019-04-23T05:36:25.680Z,10.59
2019-04-23T05:37:14.785Z,10.40
2019-04-23T05:40:24.188Z,10.47
2019-04-23T05:41:16.283Z,10.53
2019-04-23T05:42:15.152Z,10.56
2019-04-23T05:43:12.968Z,10.62
2019-04-23T05:44:15.763Z,10.58
2019-04-23T05:45:22.106Z,10.71
2019-04-23T05:46:22.282Z,10.77
2019-04-23T05:49:12.751Z,10.74
2019-04-23T05:50:21.615Z,10.86
2019-04-23T05:52:29.187Z,10.99
2019-04-23T05:53:14.703Z,10.99
2019-04-23T05:54:12.554Z,10.95
2019-04-23T05:55:13.608Z,11.09
2019-04-23T05:56:13.200Z,11.14
2019-04-23T05:57:15.843Z,11.13
2019-04-23T05:58:16.936Z,11.13
2019-04-23T05:59:16.401Z,11.27
2019-04-23T06:00:21.246Z,11.17
2019-04-23T06:01:32.194Z,11.27
2019-04-23T06:02:11.365Z,11.34
2019-04-23T06:03:19.529Z,11.34
2019-04-23T06:04:19.514Z,11.47
2019-04-23T06:05:19.708Z,11.47
2019-04-23T06:06:20.239Z,11.65
2019-04-23T06:07:23.766Z,11.65
2019-04-23T06:08:17.742Z,11.47
2019-04-23T06:09:14.255Z,11.64
2019-04-23T06:10:16.553Z,11.78
2019-04-23T06:11:19.153Z,11.82
2019-04-23T06:12:25.201Z,12.04
2019-04-23T06:13:12.322Z,12.13
2019-04-23T06:15:11.486Z,12.63
2019-04-23T06:16:16.533Z,13.25
2019-04-23T06:17:15.272Z,14.12
2019-04-23T06:18:17.141Z,14.74
2019-04-23T06:19:16.939Z,15.64
2019-04-23T06:21:15.299Z,17.18
2019-04-23T06:23:25.258Z,17.94
2019-04-23T06:25:22.094Z,18.46
2019-04-23T06:27:13.410Z,19.47
2019-04-23T06:28:12.755Z,19.42
2019-04-23T06:29:20.961Z,19.61
2019-04-23T06:30:34.310Z,20.03
2019-04-23T06:31:20.414Z,20.65
2019-04-23T06:32:14.915Z,21.36
2019-04-23T06:33:22.792Z,22.02
2019-04-23T06:34:17.165Z,22.57
2019-04-23T06:35:11.923Z,23.09
2019-04-23T06:36:13.924Z,23.08
2019-04-23T06:37:09.703Z,23.31
2019-04-23T06:39:06.711Z,22.84
2019-04-23T06:40:17.041Z,22.56
2019-04-23T06:41:16.987Z,22.64
2019-04-23T06:42:24.592Z,22.62
2019-04-23T06:43:16.609Z,23.08
2019-04-23T06:45:04.830Z,24.17
2019-04-23T06:46:16.764Z,24.42
2019-04-23T06:48:15.542Z,25.20
2019-04-23T06:49:20.029Z,24.85
2019-04-23T06:50:03.551Z,24.27
2019-04-23T06:51:21.736Z,24.24
2019-04-23T06:52:18.340Z,23.71
2019-04-23T06:53:04.185Z,23.49
2019-04-23T06:54:13.438Z,22.93
2019-04-23T06:55:14.901Z,23.47
2019-04-23T06:58:19.528Z,24.67
2019-04-23T06:59:14.126Z,24.85
2019-04-23T07:00:17.599Z,25.30
2019-04-23T07:01:09.746Z,25.15
2019-04-23T07:02:20.823Z,24.77
2019-04-23T07:03:15.083Z,24.88
2019-04-23T07:04:17.957Z,25.43
2019-04-23T07:06:23.639Z,25.64
2019-04-23T07:08:11.610Z,25.56
2019-04-23T07:10:10.073Z,26.96
2019-04-23T07:11:23.399Z,27.17
2019-04-23T07:12:20.405Z,27.46
2019-04-23T07:13:14.401Z,27.85
2019-04-23T07:14:02.630Z,27.57
2019-04-23T07:16:12.890Z,27.06
2019-04-23T07:17:08.506Z,27.50
2019-04-23T07:18:08.695Z,27.79
2019-04-23T07:19:16.550Z,27.88
2019-04-23T07:20:13.152Z,28.40
2019-04-23T07:23:17.096Z,29.56
2019-04-23T07:24:08.675Z,29.75
2019-04-23T07:25:14.144Z,29.06
2019-04-23T07:26:30.451Z,29.00
2019-04-23T07:27:14.894Z,29.23
2019-04-23T07:28:14.582Z,29.90
2019-04-23T07:30:17.092Z,29.65
2019-04-23T07:31:28.446Z,28.88
2019-04-23T07:32:11.939Z,29.08
2019-04-23T07:33:11.255Z,29.53
2019-04-23T07:36:17.175Z,30.56
2019-04-23T07:37:15.493Z,29.44
2019-04-23T07:38:21.930Z,28.41
2019-04-23T07:39:17.575Z,27.70
2019-04-23T07:40:23.120Z,27.46
2019-04-23T07:41:18.017Z,27.05
2019-04-23T07:42:23.057Z,27.05
2019-04-23T07:45:17.150Z,28.63
2019-04-23T07:46:16.811Z,28.53
2019-04-23T07:49:11.964Z,27.20
2019-04-23T07:50:33.565Z,27.51
2019-04-23T07:51:14.098Z,27.61
2019-04-23T07:52:20.114Z,27.11
2019-04-23T07:54:19.379Z,26.01
2019-04-23T07:55:21.632Z,26.18
2019-04-23T07:56:13.237Z,26.22
2019-04-23T07:59:20.649Z,26.96
2019-04-23T08:00:36.745Z,27.57
2019-04-23T08:01:09.657Z,27.11
2019-04-23T08:04:13.114Z,27.76
2019-04-23T08:05:31.553Z,28.19
2019-04-23T08:06:22.025Z,28.16
2019-04-23T08:07:14.701Z,27.94
2019-04-23T08:08:24.514Z,28.38
2019-04-23T08:09:22.471Z,29.03
2019-04-23T08:10:14.220Z,29.74
2019-04-23T08:11:33.125Z,29.37
2019-04-23T08:12:19.392Z,29.49
2019-04-23T08:13:16.404Z,29.50
2019-04-23T08:14:08.454Z,30.08
2019-04-23T08:15:14.971Z,30.16
2019-04-23T08:17:14.400Z,30.14
2019-04-23T08:18:13.477Z,30.45
2019-04-23T08:19:05.583Z,30.33
2019-04-23T08:20:30.310Z,30.23
2019-04-23T08:22:22.227Z,30.43
2019-04-23T08:23:10.149Z,29.74
2019-04-23T08:24:35.870Z,29.68
2019-04-23T08:25:15.727Z,30.12
2019-04-23T08:26:19.465Z,30.46
2019-04-23T08:27:24.989Z,30.40
2019-04-23T08:28:13.367Z,30.46
2019-04-23T08:30:06.428Z,30.03
2019-04-23T08:31:16.442Z,29.22
2019-04-23T08:32:19.321Z,29.53
2019-04-23T08:33:12.580Z,29.75
2019-04-23T08:35:15.959Z,28.54
2019-04-23T08:36:11.809Z,28.22
2019-04-23T08:38:23.964Z,27.21
2019-04-23T08:40:13.258Z,27.96
2019-04-23T08:41:20.657Z,28.95
2019-04-23T08:42:33.478Z,29.29
2019-04-23T08:43:18.067Z,29.07
2019-04-23T08:44:16.819Z,29.08
2019-04-23T08:45:20.267Z,28.80
2019-04-23T08:46:13.190Z,28.80
2019-04-23T08:47:17.158Z,28.84
2019-04-23T08:49:16.285Z,28.36
2019-04-23T08:50:18.849Z,27.71
2019-04-23T08:51:21.043Z,28.17
2019-04-23T08:52:15.624Z,28.72
2019-04-23T08:53:26.295Z,28.90
2019-04-23T08:54:21.930Z,29.04
2019-04-23T08:55:30.836Z,29.65
2019-04-23T08:56:09.018Z,29.59
2019-04-23T08:58:15.547Z,30.19
2019-04-23T08:59:17.427Z,30.46
2019-04-23T09:00:09.121Z,30.57
2019-04-23T09:01:10.817Z,30.38
2019-04-23T09:03:18.893Z,30.62
2019-04-23T09:04:08.310Z,30.18
2019-04-23T09:05:34.666Z,30.40
2019-04-23T09:06:10.845Z,29.89
2019-04-23T09:07:16.649Z,29.63
2019-04-23T09:08:14.462Z,29.68
2019-04-23T09:09:13.264Z,29.34
2019-04-23T09:10:17.844Z,29.37
2019-04-23T09:12:18.895Z,29.50
2019-04-23T09:13:43.122Z,30.07
2019-04-23T09:14:27.769Z,30.08
2019-04-23T09:15:16.770Z,30.09
2019-04-23T09:16:12.022Z,28.84
2019-04-23T09:17:21.205Z,28.68
2019-04-23T09:19:32.202Z,28.38
2019-04-23T09:21:08.962Z,27.38
2019-04-23T09:22:25.141Z,27.47
2019-04-23T09:23:13.597Z,27.74
2019-04-23T09:24:17.572Z,28.09
2019-04-23T09:25:23.102Z,28.10
2019-04-23T09:26:21.901Z,28.60
2019-04-23T09:27:16.240Z,28.04
2019-04-23T09:28:23.995Z,28.16
2019-04-23T09:29:13.239Z,27.98
2019-04-23T09:30:14.825Z,27.38
2019-04-23T09:33:21.653Z,27.57
2019-04-23T09:34:10.162Z,28.06
2019-04-23T09:35:26.053Z,28.36
2019-04-23T09:36:13.688Z,29.13
2019-04-23T09:38:11.617Z,28.87
2019-04-23T09:39:17.020Z,29.22
2019-04-23T09:40:22.356Z,29.45
2019-04-23T09:42:22.324Z,29.26
2019-04-23T09:43:13.845Z,29.28
2019-04-23T09:44:27.717Z,29.55
2019-04-23T09:45:17.141Z,29.82
2019-04-23T09:47:14.322Z,30.98
2019-04-23T09:48:08.580Z,31.57
2019-04-23T09:49:18.758Z,32.02
2019-04-23T09:50:15.703Z,31.35
2019-04-23T09:51:13.482Z,30.14
2019-04-23T09:52:15.355Z,29.25
2019-04-23T09:53:17.151Z,29.31
2019-04-23T09:54:16.281Z,29.34
2019-04-23T09:56:04.990Z,29.04
2019-04-23T09:57:24.467Z,29.78
2019-04-23T09:58:07.935Z,30.94
2019-04-23T09:59:17.558Z,31.64
2019-04-23T10:00:16.967Z,31.65
2019-04-23T10:01:17.308Z,30.80
2019-04-23T10:02:04.366Z,31.08
2019-04-23T10:02:59.585Z,30.81
2019-04-23T10:03:59.067Z,30.59
2019-04-23T10:04:56.910Z,30.40
2019-04-23T10:05:53.383Z,30.61
2019-04-23T10:06:57.369Z,31.15
2019-04-23T10:07:57.649Z,31.42
2019-04-23T10:08:50.054Z,30.16
2019-04-23T10:09:44.765Z,29.77
2019-04-23T10:10:42.938Z,29.41
2019-04-23T10:11:43.271Z,28.90
2019-04-23T10:12:44.067Z,29.50
2019-04-23T10:13:42.956Z,30.05
2019-04-23T10:14:55.150Z,30.03
2019-04-23T10:15:46.758Z,30.18
2019-04-23T10:16:43.395Z,30.59
2019-04-23T10:17:44.408Z,30.89
2019-04-23T10:18:42.849Z,31.43
2019-04-23T10:19:44.604Z,31.72
2019-04-23T10:20:42.831Z,32.10
2019-04-23T10:21:43.826Z,31.85
2019-04-23T10:22:44.285Z,31.50
2019-04-23T10:23:43.270Z,31.28
2019-04-23T10:24:43.583Z,31.42
2019-04-23T10:25:43.757Z,31.85
2019-04-23T10:26:43.911Z,32.44
2019-04-23T10:27:43.295Z,33.34
2019-04-23T10:28:44.223Z,34.04
2019-04-23T10:29:43.648Z,34.69
2019-04-23T10:30:42.750Z,35.07
2019-04-23T10:31:43.913Z,35.01
2019-04-23T10:32:43.184Z,33.87
2019-04-23T10:33:44.006Z,32.99
2019-04-23T10:34:52.997Z,33.06
2019-04-23T10:35:54.620Z,33.37
2019-04-23T10:36:44.147Z,33.23
2019-04-23T10:37:52.261Z,32.49
2019-04-23T10:38:53.938Z,31.80
2019-04-23T10:39:48.229Z,30.99
2019-04-23T10:40:46.835Z,30.29
2019-04-23T10:41:46.357Z,30.30
2019-04-23T10:42:45.609Z,29.41
2019-04-23T10:43:44.562Z,29.45
2019-04-23T10:44:45.823Z,28.10
2019-04-23T10:46:03.945Z,28.26
2019-04-23T10:47:11.785Z,29.22
2019-04-23T10:48:21.735Z,29.47
2019-04-23T10:49:39.061Z,29.74
2019-04-23T10:50:31.796Z,29.53
2019-04-23T10:51:17.176Z,29.37
2019-04-23T10:52:26.449Z,29.38
2019-04-23T10:54:25.157Z,28.09
2019-04-23T10:55:08.196Z,27.33
2019-04-23T10:57:12.852Z,26.94
2019-04-23T10:58:21.637Z,27.01
2019-04-23T10:59:12.024Z,26.95
2019-04-23T11:00:09.168Z,27.17
2019-04-23T11:01:16.338Z,27.94
2019-04-23T11:03:20.568Z,28.41
2019-04-23T11:04:38.499Z,27.74
2019-04-23T11:05:41.251Z,27.26
2019-04-23T11:06:16.564Z,27.21
2019-04-23T11:07:27.187Z,27.29
2019-04-23T11:08:11.234Z,27.43
2019-04-23T11:09:30.686Z,27.41
2019-04-23T11:10:08.497Z,27.48
2019-04-23T11:11:16.604Z,27.10
2019-04-23T11:12:23.728Z,26.96
2019-04-23T11:13:21.013Z,27.24
2019-04-23T11:14:19.513Z,27.47
2019-04-23T11:15:22.866Z,27.46
2019-04-23T11:16:41.493Z,27.26
2019-04-23T11:17:17.792Z,27.69
2019-04-23T11:18:02.786Z,27.70
2019-04-23T11:19:15.119Z,27.23
2019-04-23T11:20:27.382Z,26.89
2019-04-23T11:21:14.923Z,26.84
2019-04-23T11:22:30.193Z,26.29
2019-04-23T11:22:59.132Z,26.27
2019-04-23T11:24:23.422Z,26.57
2019-04-23T11:25:20.452Z,26.46
2019-04-23T11:26:16.981Z,26.17
2019-04-23T11:27:14.752Z,26.40
2019-04-23T11:28:16.250Z,26.28
2019-04-23T11:29:19.261Z,26.42
2019-04-23T11:30:19.644Z,26.46
2019-04-23T11:31:16.632Z,26.58
2019-04-23T11:33:30.139Z,26.40
2019-04-23T11:34:19.724Z,26.32
2019-04-23T11:37:12.379Z,25.64
2019-04-23T11:38:44.542Z,25.31
2019-04-23T11:39:05.453Z,25.13
2019-04-23T11:40:17.385Z,25.15
2019-04-23T11:41:20.796Z,25.32
2019-04-23T11:42:12.274Z,25.49
2019-04-23T11:43:13.220Z,25.46
2019-04-23T11:45:19.126Z,25.47
2019-04-23T11:47:41.365Z,25.84
2019-04-23T11:48:33.013Z,26.40
2019-04-23T11:50:24.256Z,26.73
2019-04-23T11:51:06.713Z,26.79
2019-04-23T11:53:10.126Z,27.38
2019-04-23T11:54:10.295Z,27.79
2019-04-23T11:55:28.670Z,27.98
2019-04-23T11:56:32.545Z,28.35
2019-04-23T11:59:20.262Z,29.40
2019-04-23T12:00:14.520Z,29.87
2019-04-23T12:01:26.154Z,29.68
2019-04-23T12:02:06.397Z,29.34
2019-04-23T12:03:04.282Z,29.01
2019-04-23T12:04:24.885Z,28.81
2019-04-23T12:05:24.711Z,28.93
2019-04-23T12:06:16.886Z,28.78
2019-04-23T12:07:19.022Z,29.10
2019-04-23T12:08:16.966Z,29.34
2019-04-23T12:09:17.981Z,29.40
2019-04-23T12:10:31.672Z,29.71
2019-04-23T12:11:46.817Z,30.08
2019-04-23T12:13:20.734Z,29.19
2019-04-23T12:14:24.287Z,28.81
2019-04-23T12:16:20.345Z,27.57
2019-04-23T12:17:24.929Z,27.76
2019-04-23T12:18:18.103Z,27.88
2019-04-23T12:19:33.394Z,28.04
2019-04-23T12:21:12.869Z,28.85
2019-04-23T12:22:18.031Z,29.33
2019-04-23T12:23:31.929Z,29.43
2019-04-23T12:24:27.129Z,28.59
2019-04-23T12:25:21.623Z,28.69
2019-04-23T12:26:19.207Z,29.00
2019-04-23T12:27:17.014Z,29.08
2019-04-23T12:28:17.993Z,29.20
2019-04-23T12:29:23.035Z,28.90
2019-04-23T12:31:10.028Z,28.97
2019-04-23T12:32:28.110Z,28.75
2019-04-23T12:33:13.329Z,28.48
2019-04-23T12:34:18.007Z,28.36
2019-04-23T12:36:14.751Z,28.53
2019-04-23T12:37:19.701Z,28.03
2019-04-23T12:38:14.268Z,28.13
2019-04-23T12:39:11.330Z,27.99
2019-04-23T12:40:17.557Z,28.10
2019-04-23T12:41:12.902Z,28.26
2019-04-23T12:42:34.339Z,28.36
2019-04-23T12:43:12.699Z,28.13
2019-04-23T12:44:12.914Z,28.23
2019-04-23T12:46:05.376Z,27.95
2019-04-23T12:47:25.485Z,27.66
2019-04-23T12:48:30.818Z,27.92
2019-04-23T12:49:28.136Z,28.10
2019-04-23T12:51:08.435Z,28.46
2019-04-23T12:52:17.137Z,28.81
2019-04-23T12:53:10.207Z,28.54
2019-04-23T12:54:22.495Z,28.78
2019-04-23T12:55:13.274Z,28.32
2019-04-23T12:56:08.893Z,28.38
2019-04-23T12:57:18.300Z,28.35
2019-04-23T12:59:08.741Z,28.46
2019-04-23T13:00:18.034Z,28.66
2019-04-23T13:01:05.618Z,28.96
2019-04-23T13:02:22.883Z,29.16
2019-04-23T13:03:08.534Z,29.03
2019-04-23T13:04:11.665Z,29.13
2019-04-23T13:05:11.823Z,29.04
2019-04-23T13:06:13.629Z,29.08
2019-04-23T13:07:22.220Z,28.85
2019-04-23T13:09:21.916Z,28.87
2019-04-23T13:10:10.387Z,28.70
2019-04-23T13:11:30.082Z,28.69
2019-04-23T13:12:27.692Z,28.75
2019-04-23T13:13:16.732Z,28.53
2019-04-23T13:14:21.089Z,28.25
2019-04-23T13:15:13.935Z,27.94
2019-04-23T13:16:17.911Z,27.54
2019-04-23T13:17:19.938Z,27.64
2019-04-23T13:18:11.323Z,27.66
2019-04-23T13:19:26.242Z,27.77
2019-04-23T13:20:19.809Z,28.09
2019-04-23T13:21:31.417Z,28.07
2019-04-23T13:22:16.478Z,28.09
2019-04-23T13:23:16.791Z,28.14
2019-04-23T13:24:10.893Z,27.58
2019-04-23T13:25:09.919Z,27.19
2019-04-23T13:26:04.206Z,27.23
2019-04-23T13:27:15.449Z,27.16
2019-04-23T13:29:28.607Z,26.92
2019-04-23T13:30:16.629Z,26.98
2019-04-23T13:32:09.374Z,27.16
2019-04-23T13:34:16.297Z,27.06
2019-04-23T13:35:20.125Z,27.16
2019-04-23T13:37:13.982Z,27.85
2019-04-23T13:38:16.881Z,27.54
2019-04-23T13:39:10.633Z,27.47
2019-04-23T13:40:09.180Z,27.77
2019-04-23T13:41:17.021Z,27.96
2019-04-23T13:42:19.838Z,28.29
2019-04-23T13:43:14.061Z,28.53
2019-04-23T13:44:02.569Z,28.35
2019-04-23T13:45:18.418Z,28.31
2019-04-23T13:47:23.071Z,28.32
2019-04-23T13:49:08.023Z,28.82
2019-04-23T13:50:24.365Z,28.69
2019-04-23T13:51:19.478Z,28.54
2019-04-23T13:52:26.490Z,28.58
2019-04-23T13:53:31.770Z,28.73
2019-04-23T13:56:09.189Z,28.10
2019-04-23T13:58:15.206Z,28.10
2019-04-23T13:59:15.481Z,28.04
2019-04-23T14:00:20.856Z,28.22
2019-04-23T14:02:20.987Z,28.40
2019-04-23T14:03:13.359Z,28.07
2019-04-23T14:04:11.969Z,27.85
2019-04-23T14:06:18.573Z,28.31
2019-04-23T14:07:17.758Z,28.51
2019-04-23T14:08:28.492Z,28.72
2019-04-23T14:09:12.002Z,28.36
2019-04-23T14:10:31.229Z,27.95
2019-04-23T14:12:10.706Z,28.50
2019-04-23T14:13:31.218Z,28.72
2019-04-23T14:14:22.210Z,29.07
2019-04-23T14:15:12.460Z,29.23
2019-04-23T14:16:17.846Z,28.85
2019-04-23T14:17:18.146Z,28.87
2019-04-23T14:18:27.024Z,28.68
2019-04-23T14:19:02.341Z,28.72
2019-04-23T14:20:13.816Z,28.72
2019-04-23T14:21:06.579Z,28.66
2019-04-23T14:23:12.928Z,28.28
2019-04-23T14:24:18.140Z,28.33
2019-04-23T14:27:14.290Z,27.84
2019-04-23T14:28:30.785Z,27.89
2019-04-23T14:29:04.217Z,28.07
2019-04-23T14:30:23.384Z,27.82
2019-04-23T14:32:20.836Z,27.74
2019-04-23T14:33:11.567Z,27.96
2019-04-23T14:35:18.375Z,27.99
2019-04-23T14:36:10.559Z,27.50
2019-04-23T14:37:12.123Z,27.33
2019-04-23T14:39:15.772Z,26.98
2019-04-23T14:40:12.499Z,27.20
2019-04-23T14:41:21.754Z,27.54
2019-04-23T14:42:20.420Z,27.48
2019-04-23T14:43:25.806Z,27.62
2019-04-23T14:44:18.490Z,27.57
2019-04-23T14:45:25.398Z,27.09
2019-04-23T14:47:16.913Z,27.14
2019-04-23T14:48:14.627Z,27.02
2019-04-23T14:49:25.831Z,27.10
2019-04-23T14:51:14.964Z,26.57
2019-04-23T14:52:14.260Z,26.43
2019-04-23T14:54:06.228Z,26.08
2019-04-23T14:55:43.501Z,25.61
2019-04-23T14:56:13.146Z,25.54
2019-04-23T14:58:18.078Z,25.44
2019-04-23T15:00:18.293Z,25.25
2019-04-23T15:01:21.634Z,25.50
2019-04-23T15:02:18.414Z,25.59
2019-04-23T15:04:01.909Z,25.31
2019-04-23T15:05:11.554Z,25.46
2019-04-23T15:07:15.682Z,25.67
2019-04-23T15:08:16.329Z,25.65
2019-04-23T15:09:19.416Z,25.56
2019-04-23T15:10:18.647Z,25.42
2019-04-23T15:11:20.566Z,25.20
2019-04-23T15:13:07.902Z,24.97
2019-04-23T15:14:23.284Z,24.95
2019-04-23T15:17:15.769Z,24.98
2019-04-23T15:18:14.109Z,24.82
2019-04-23T15:20:08.154Z,24.37
2019-04-23T15:21:34.545Z,24.45
2019-04-23T15:24:13.922Z,24.59
2019-04-23T15:28:50.994Z,24.44
2019-04-23T15:29:57.893Z,24.27
2019-04-23T15:31:21.254Z,24.17
2019-04-23T15:32:09.915Z,24.20
2019-04-23T15:35:23.493Z,23.71
2019-04-23T15:36:28.864Z,23.68
2019-04-23T15:37:23.793Z,23.61
2019-04-23T15:38:27.262Z,23.58
2019-04-23T15:39:16.721Z,23.58
2019-04-23T15:40:15.091Z,23.43
2019-04-23T15:41:21.337Z,23.24
2019-04-23T15:42:14.563Z,23.32
2019-04-23T15:43:10.513Z,23.34
2019-04-23T15:44:10.725Z,23.29
2019-04-23T15:45:13.245Z,23.46
2019-04-23T15:46:13.020Z,23.40
2019-04-23T15:47:14.598Z,23.39
2019-04-23T15:48:11.853Z,23.58
2019-04-23T15:49:18.210Z,23.39
2019-04-23T15:51:20.420Z,23.60
2019-04-23T15:53:26.724Z,23.76
2019-04-23T15:54:13.746Z,23.65
2019-04-23T15:55:08.282Z,23.46
2019-04-23T15:57:07.130Z,23.39
2019-04-23T15:59:21.007Z,23.38
2019-04-23T16:00:06.485Z,23.49
2019-04-23T16:01:15.432Z,23.38
2019-04-23T16:01:43.376Z,23.27
2019-04-23T16:02:39.002Z,23.17
2019-04-23T16:03:41.858Z,23.05